createdAt,value
2023-05-21T00:00:03.145Z,98300.06
2023-05-21T00:01:06.289Z,98296.09
2023-05-21T00:02:14.888Z,98292.41
2023-05-21T00:03:18.261Z,98296.63
2023-05-21T00:04:21.220Z,98293.31
2023-05-21T00:05:24.316Z,98282.94
2023-05-21T00:06:27.916Z,98283.69
2023-05-21T00:07:33.423Z,98279.53
2023-05-21T00:08:36.340Z,98287.56
2023-05-21T00:09:39.713Z,98284.38
2023-05-21T00:10:42.608Z,98285.41
2023-05-21T00:11:45.445Z,98278.00
2023-05-21T00:12:48.276Z,98282.50
2023-05-21T00:13:51.163Z,98282.72
2023-05-21T00:14:54.009Z,98287.19
2023-05-21T00:15:56.957Z,98289.44
2023-05-21T00:16:59.887Z,98287.75
2023-05-21T00:18:03.919Z,98286.53
2023-05-21T00:19:07.163Z,98288.22
2023-05-21T00:20:10.334Z,98283.16
2023-05-21T00:21:14.368Z,98289.44
2023-05-21T00:22:17.322Z,98287.13
2023-05-21T00:23:20.280Z,98286.25
2023-05-21T00:24:23.230Z,98290.66
2023-05-21T00:25:26.336Z,98286.03
2023-05-21T00:26:29.215Z,98279.75
2023-05-21T00:27:32.366Z,98287.78
2023-05-21T00:28:35.372Z,98283.97
2023-05-21T00:29:38.674Z,98291.91
2023-05-21T00:30:43.369Z,98289.91
2023-05-21T00:31:46.409Z,98286.06
2023-05-21T00:32:49.399Z,98288.44
2023-05-21T00:33:52.546Z,98287.03
2023-05-21T00:34:55.913Z,98280.66
2023-05-21T00:35:59.159Z,98288.78
2023-05-21T00:37:03.481Z,98282.72
2023-05-21T00:38:08.768Z,98287.38
2023-05-21T00:39:13.521Z,98288.78
2023-05-21T00:40:16.635Z,98288.34
2023-05-21T00:41:20.095Z,98276.13
2023-05-21T00:42:27.648Z,98291.31
2023-05-21T00:43:30.515Z,98289.78
2023-05-21T00:44:34.623Z,98283.69
2023-05-21T00:45:38.067Z,98282.69
2023-05-21T00:46:41.857Z,98286.84
2023-05-21T00:47:46.137Z,98286.19
2023-05-21T00:48:51.018Z,98282.44
2023-05-21T00:49:53.995Z,98288.97
2023-05-21T00:50:56.915Z,98288.50
2023-05-21T00:52:01.861Z,98290.06
2023-05-21T00:53:05.123Z,98291.59
2023-05-21T00:54:08.574Z,98276.03
2023-05-21T00:55:11.780Z,98284.56
2023-05-21T00:56:14.762Z,98282.12
2023-05-21T00:57:22.678Z,98274.53
2023-05-21T00:58:25.948Z,98278.00
2023-05-21T00:59:29.126Z,98279.81
2023-05-21T01:00:36.066Z,98280.56
2023-05-21T01:01:39.056Z,98279.81
2023-05-21T01:02:42.598Z,98276.72
2023-05-21T01:03:45.570Z,98272.06
2023-05-21T01:04:48.506Z,98274.88
2023-05-21T01:05:53.904Z,98271.09
2023-05-21T01:06:58.887Z,98276.28
2023-05-21T01:08:02.262Z,98268.22
2023-05-21T01:09:07.466Z,98275.28
2023-05-21T01:10:12.391Z,98270.31
2023-05-21T01:11:15.368Z,98269.97
2023-05-21T01:12:19.258Z,98271.37
2023-05-21T01:13:23.504Z,98278.25
2023-05-21T01:14:26.828Z,98274.09
2023-05-21T01:15:30.225Z,98277.00
2023-05-21T01:16:33.109Z,98273.72
2023-05-21T01:17:36.156Z,98276.69
2023-05-21T01:18:39.360Z,98260.59
2023-05-21T01:19:44.947Z,98269.84
2023-05-21T01:20:48.555Z,98276.56
2023-05-21T01:22:02.023Z,98264.53
2023-05-21T01:23:06.207Z,98250.56
2023-05-21T01:24:09.041Z,98259.12
2023-05-21T01:25:12.423Z,98249.75
2023-05-21T01:26:16.170Z,98248.22
2023-05-21T01:27:19.211Z,98252.41
2023-05-21T01:28:22.099Z,98253.84
2023-05-21T01:29:25.697Z,98261.19
2023-05-21T01:30:28.869Z,98252.75
2023-05-21T01:31:48.871Z,98246.41
2023-05-21T01:33:18.048Z,98259.59
2023-05-21T01:34:27.169Z,98247.72
2023-05-21T01:35:55.279Z,98255.22
2023-05-21T01:37:11.765Z,98253.00
2023-05-21T01:38:26.676Z,98251.69
2023-05-21T01:39:36.018Z,98254.63
2023-05-21T01:40:58.955Z,98254.19
2023-05-21T01:42:06.520Z,98251.53
2023-05-21T01:43:10.929Z,98252.44
2023-05-21T01:44:18.252Z,98266.84
2023-05-21T01:45:24.478Z,98260.28
2023-05-21T01:46:30.684Z,98265.59
2023-05-21T01:47:36.287Z,98255.34
2023-05-21T01:48:39.519Z,98266.94
2023-05-21T01:49:42.965Z,98256.63
2023-05-21T01:50:46.589Z,98266.84
2023-05-21T01:51:50.084Z,98262.97
2023-05-21T01:52:57.146Z,98264.81
2023-05-21T01:54:00.023Z,98259.69
2023-05-21T01:55:03.886Z,98258.16
2023-05-21T01:56:07.454Z,98264.66
2023-05-21T01:57:10.490Z,98260.78
2023-05-21T01:58:13.609Z,98264.53
2023-05-21T01:59:17.621Z,98255.56
2023-05-21T02:00:24.968Z,98261.16
2023-05-21T02:01:30.417Z,98258.84
2023-05-21T02:02:33.667Z,98253.44
2023-05-21T02:03:37.104Z,98260.78
2023-05-21T02:04:41.785Z,98261.25
2023-05-21T02:05:44.771Z,98258.41
2023-05-21T02:06:47.900Z,98253.16
2023-05-21T02:07:52.280Z,98263.34
2023-05-21T02:08:55.861Z,98259.03
2023-05-21T02:09:58.659Z,98259.81
2023-05-21T02:11:01.655Z,98266.69
2023-05-21T02:12:04.808Z,98264.63
2023-05-21T02:13:07.807Z,98264.06
2023-05-21T02:14:10.812Z,98265.78
2023-05-21T02:15:18.332Z,98261.03
2023-05-21T02:16:22.858Z,98261.09
2023-05-21T02:17:26.499Z,98263.69
2023-05-21T02:18:29.588Z,98258.03
2023-05-21T02:19:32.705Z,98267.66
2023-05-21T02:20:35.809Z,98257.22
2023-05-21T02:21:38.712Z,98259.44
2023-05-21T02:22:44.289Z,98255.81
2023-05-21T02:23:47.254Z,98255.81
2023-05-21T02:24:50.123Z,98257.72
2023-05-21T02:25:53.101Z,98258.19
2023-05-21T02:26:56.567Z,98251.16
2023-05-21T02:27:59.813Z,98248.28
2023-05-21T02:29:04.297Z,98257.16
2023-05-21T02:30:09.224Z,98257.47
2023-05-21T02:31:12.805Z,98246.47
2023-05-21T02:32:15.717Z,98257.56
2023-05-21T02:33:20.043Z,98257.44
2023-05-21T02:34:23.176Z,98249.34
2023-05-21T02:35:26.286Z,98256.88
2023-05-21T02:36:29.105Z,98250.19
2023-05-21T02:37:34.419Z,98248.47
2023-05-21T02:38:38.558Z,98259.47
2023-05-21T02:39:41.602Z,98256.88
2023-05-21T02:40:44.467Z,98249.63
2023-05-21T02:41:48.044Z,98246.00
2023-05-21T02:42:50.951Z,98257.00
2023-05-21T02:43:53.693Z,98262.81
2023-05-21T02:44:57.006Z,98264.09
2023-05-21T02:46:00.087Z,98258.59
2023-05-21T02:47:03.244Z,98259.44
2023-05-21T02:48:06.534Z,98251.16
2023-05-21T02:49:09.457Z,98253.53
2023-05-21T02:50:14.363Z,98259.19
2023-05-21T02:51:17.156Z,98247.56
2023-05-21T02:52:24.176Z,98249.91
2023-05-21T02:53:27.174Z,98257.84
2023-05-21T02:54:29.952Z,98254.44
2023-05-21T02:55:32.881Z,98250.69
2023-05-21T02:56:35.766Z,98252.75
2023-05-21T02:57:38.867Z,98252.19
2023-05-21T02:58:42.214Z,98250.84
2023-05-21T02:59:46.165Z,98256.88
2023-05-21T03:00:49.198Z,98249.63
2023-05-21T03:01:52.191Z,98250.84
2023-05-21T03:02:55.283Z,98253.53
2023-05-21T03:03:58.353Z,98259.31
2023-05-21T03:05:01.248Z,98244.78
2023-05-21T03:06:04.289Z,98241.81
2023-05-21T03:07:07.242Z,98249.31
2023-05-21T03:08:10.055Z,98253.84
2023-05-21T03:09:13.475Z,98256.59
2023-05-21T03:10:16.601Z,98253.19
2023-05-21T03:11:20.553Z,98255.69
2023-05-21T03:12:23.455Z,98261.75
2023-05-21T03:13:26.371Z,98264.84
2023-05-21T03:14:29.421Z,98252.72
2023-05-21T03:15:33.673Z,98252.38
2023-05-21T03:16:36.700Z,98252.97
2023-05-21T03:17:39.665Z,98253.44
2023-05-21T03:18:44.626Z,98257.47
2023-05-21T03:19:49.503Z,98255.66
2023-05-21T03:20:52.348Z,98261.16
2023-05-21T03:21:56.857Z,98259.41
2023-05-21T03:23:00.848Z,98262.47
2023-05-21T03:24:04.865Z,98258.75
2023-05-21T03:25:07.954Z,98264.75
2023-05-21T03:26:11.814Z,98252.72
2023-05-21T03:27:14.709Z,98255.97
2023-05-21T03:28:18.076Z,98256.06
2023-05-21T03:29:21.079Z,98256.56
2023-05-21T03:30:24.034Z,98257.78
2023-05-21T03:31:27.392Z,98254.25
2023-05-21T03:32:30.531Z,98253.59
2023-05-21T03:33:33.575Z,98257.66
2023-05-21T03:34:36.487Z,98256.16
2023-05-21T03:35:39.452Z,98260.16
2023-05-21T03:36:42.306Z,98264.63
2023-05-21T03:37:45.204Z,98257.59
2023-05-21T03:38:48.137Z,98253.16
2023-05-21T03:39:51.115Z,98257.91
2023-05-21T03:40:54.537Z,98257.91
2023-05-21T03:41:57.369Z,98260.84
2023-05-21T03:43:00.456Z,98261.78
2023-05-21T03:44:03.408Z,98258.50
2023-05-21T03:45:07.234Z,98252.19
2023-05-21T03:46:10.270Z,98256.50
2023-05-21T03:47:13.087Z,98256.50
2023-05-21T03:48:16.160Z,98254.91
2023-05-21T03:49:19.014Z,98256.97
2023-05-21T03:50:21.975Z,98249.16
2023-05-21T03:51:25.196Z,98258.31
2023-05-21T03:52:28.101Z,98256.56
2023-05-21T03:53:31.203Z,98256.53
2023-05-21T03:54:34.205Z,98262.38
2023-05-21T03:55:37.446Z,98254.09
2023-05-21T03:56:40.435Z,98255.44
2023-05-21T03:57:43.416Z,98260.12
2023-05-21T03:58:47.089Z,98259.03
2023-05-21T03:59:49.895Z,98262.44
2023-05-21T04:00:52.868Z,98263.69
2023-05-21T04:01:55.841Z,98258.97
2023-05-21T04:02:59.326Z,98269.03
2023-05-21T04:04:02.699Z,98264.63
2023-05-21T04:05:06.066Z,98265.69
2023-05-21T04:06:10.522Z,98262.78
2023-05-21T04:07:15.799Z,98260.28
2023-05-21T04:08:18.618Z,98260.91
2023-05-21T04:09:22.085Z,98266.97
2023-05-21T04:10:25.034Z,98267.12
2023-05-21T04:11:27.880Z,98261.97
2023-05-21T04:12:30.862Z,98260.88
2023-05-21T04:13:33.837Z,98263.84
2023-05-21T04:14:37.949Z,98266.56
2023-05-21T04:15:41.139Z,98264.91
2023-05-21T04:16:44.427Z,98265.56
2023-05-21T04:17:47.781Z,98267.12
2023-05-21T04:18:51.719Z,98262.16
2023-05-21T04:19:54.796Z,98265.25
2023-05-21T04:20:59.455Z,98265.38
2023-05-21T04:22:03.438Z,98264.41
2023-05-21T04:23:06.382Z,98267.12
2023-05-21T04:24:09.237Z,98276.19
2023-05-21T04:25:12.390Z,98280.16
2023-05-21T04:26:16.646Z,98269.41
2023-05-21T04:27:19.586Z,98274.69
2023-05-21T04:28:24.511Z,98268.75
2023-05-21T04:29:28.222Z,98269.19
2023-05-21T04:30:31.145Z,98270.66
2023-05-21T04:31:34.302Z,98270.78
2023-05-21T04:32:37.260Z,98276.50
2023-05-21T04:33:42.458Z,98275.44
2023-05-21T04:34:45.509Z,98274.81
2023-05-21T04:35:51.124Z,98274.47
2023-05-21T04:36:54.392Z,98268.19
2023-05-21T04:37:57.292Z,98265.88
2023-05-21T04:39:00.617Z,98272.66
2023-05-21T04:40:04.521Z,98274.19
2023-05-21T04:41:07.533Z,98267.94
2023-05-21T04:42:11.275Z,98273.44
2023-05-21T04:43:14.250Z,98270.87
2023-05-21T04:44:17.141Z,98272.44
2023-05-21T04:45:20.109Z,98274.31
2023-05-21T04:46:26.395Z,98269.34
2023-05-21T04:47:30.768Z,98273.09
2023-05-21T04:48:33.640Z,98284.34
2023-05-21T04:49:36.368Z,98279.16
2023-05-21T04:50:39.352Z,98268.91
2023-05-21T04:51:42.178Z,98280.50
2023-05-21T04:52:45.877Z,98277.50
2023-05-21T04:53:50.167Z,98279.69
2023-05-21T04:54:54.566Z,98280.25
2023-05-21T04:55:59.596Z,98278.41
2023-05-21T04:57:03.211Z,98274.88
2023-05-21T04:58:11.205Z,98278.63
2023-05-21T04:59:14.665Z,98272.66
2023-05-21T05:00:17.842Z,98275.75
2023-05-21T05:01:25.994Z,98274.66
2023-05-21T05:02:29.010Z,98274.19
2023-05-21T05:03:31.915Z,98269.66
2023-05-21T05:04:34.768Z,98275.19
2023-05-21T05:05:38.020Z,98278.81
2023-05-21T05:06:41.235Z,98278.50
2023-05-21T05:07:44.271Z,98278.16
2023-05-21T05:08:47.384Z,98278.50
2023-05-21T05:09:50.240Z,98275.06
2023-05-21T05:10:53.121Z,98269.78
2023-05-21T05:11:56.083Z,98272.22
2023-05-21T05:12:59.186Z,98273.19
2023-05-21T05:14:02.120Z,98265.91
2023-05-21T05:15:05.237Z,98271.94
2023-05-21T05:16:08.344Z,98274.19
2023-05-21T05:17:14.939Z,98265.44
2023-05-21T05:18:17.900Z,98265.00
2023-05-21T05:19:21.221Z,98269.06
2023-05-21T05:20:24.161Z,98269.63
2023-05-21T05:21:27.482Z,98268.19
2023-05-21T05:22:30.423Z,98264.09
2023-05-21T05:23:33.368Z,98268.38
2023-05-21T05:24:36.142Z,98264.94
2023-05-21T05:25:39.218Z,98253.56
2023-05-21T05:26:42.135Z,98257.09
2023-05-21T05:27:45.238Z,98260.09
2023-05-21T05:28:48.121Z,98262.41
2023-05-21T05:29:51.118Z,98252.88
2023-05-21T05:30:54.478Z,98257.75
2023-05-21T05:31:57.385Z,98258.75
2023-05-21T05:33:00.457Z,98264.00
2023-05-21T05:34:03.530Z,98261.97
2023-05-21T05:35:07.574Z,98260.72
2023-05-21T05:36:10.449Z,98262.44
2023-05-21T05:37:13.362Z,98266.72
2023-05-21T05:38:17.414Z,98260.72
2023-05-21T05:39:20.271Z,98265.16
2023-05-21T05:40:23.089Z,98265.50
2023-05-21T05:41:27.351Z,98259.94
2023-05-21T05:42:30.242Z,98264.69
2023-05-21T05:43:33.241Z,98257.13
2023-05-21T05:44:36.194Z,98257.41
2023-05-21T05:45:39.311Z,98260.59
2023-05-21T05:46:42.610Z,98257.19
2023-05-21T05:47:45.770Z,98258.56
2023-05-21T05:48:48.615Z,98260.19
2023-05-21T05:49:51.508Z,98263.69
2023-05-21T05:50:55.445Z,98258.53
2023-05-21T05:51:58.295Z,98260.19
2023-05-21T05:53:01.166Z,98264.59
2023-05-21T05:54:04.238Z,98264.66
2023-05-21T05:55:09.452Z,98257.72
2023-05-21T05:56:12.395Z,98258.06
2023-05-21T05:57:15.230Z,98258.56
2023-05-21T05:58:18.094Z,98258.06
2023-05-21T05:59:20.969Z,98262.16
2023-05-21T06:00:24.052Z,98252.62
2023-05-21T06:01:27.238Z,98261.44
2023-05-21T06:02:30.335Z,98250.81
2023-05-21T06:03:33.301Z,98255.09
2023-05-21T06:04:36.435Z,98256.56
2023-05-21T06:05:39.684Z,98258.47
2023-05-21T06:06:42.885Z,98254.41
2023-05-21T06:07:45.973Z,98249.16
2023-05-21T06:08:48.933Z,98257.72
2023-05-21T06:09:51.913Z,98254.34
2023-05-21T06:10:54.734Z,98256.94
2023-05-21T06:11:57.631Z,98259.16
2023-05-21T06:13:00.467Z,98254.47
2023-05-21T06:14:03.394Z,98249.50
2023-05-21T06:15:06.912Z,98257.75
2023-05-21T06:16:10.342Z,98250.16
2023-05-21T06:17:13.496Z,98254.34
2023-05-21T06:18:16.599Z,98250.16
2023-05-21T06:19:19.411Z,98252.22
2023-05-21T06:20:22.405Z,98253.47
2023-05-21T06:21:25.496Z,98253.06
2023-05-21T06:22:28.509Z,98255.22
2023-05-21T06:23:32.965Z,98252.12
2023-05-21T06:24:36.093Z,98255.59
2023-05-21T06:25:40.910Z,98262.41
2023-05-21T06:26:44.001Z,98256.50
2023-05-21T06:27:47.019Z,98257.09
2023-05-21T06:28:50.219Z,98253.38
2023-05-21T06:29:53.123Z,98260.03
2023-05-21T06:30:56.157Z,98248.81
2023-05-21T06:31:59.120Z,98257.53
2023-05-21T06:33:02.212Z,98250.53
2023-05-21T06:34:05.359Z,98249.19
2023-05-21T06:35:09.207Z,98251.75
2023-05-21T06:36:12.283Z,98254.97
2023-05-21T06:37:19.450Z,98247.87
2023-05-21T06:38:22.395Z,98257.31
2023-05-21T06:39:25.295Z,98251.88
2023-05-21T06:40:28.187Z,98248.41
2023-05-21T06:41:31.292Z,98251.53
2023-05-21T06:42:34.126Z,98248.22
2023-05-21T06:43:36.941Z,98253.34
2023-05-21T06:44:39.956Z,98246.28
2023-05-21T06:45:42.837Z,98247.66
2023-05-21T06:46:45.889Z,98246.97
2023-05-21T06:47:48.902Z,98251.72
2023-05-21T06:48:51.875Z,98244.94
2023-05-21T06:49:54.779Z,98246.47
2023-05-21T06:50:57.612Z,98241.47
2023-05-21T06:52:00.528Z,98242.97
2023-05-21T06:53:03.626Z,98252.81
2023-05-21T06:54:06.530Z,98250.66
2023-05-21T06:55:09.664Z,98249.00
2023-05-21T06:56:13.336Z,98238.41
2023-05-21T06:57:16.721Z,98251.12
2023-05-21T06:58:19.876Z,98248.97
2023-05-21T06:59:22.836Z,98248.06
2023-05-21T07:00:26.228Z,98247.25
2023-05-21T07:01:29.181Z,98237.12
2023-05-21T07:02:32.307Z,98237.56
2023-05-21T07:03:36.705Z,98247.16
2023-05-21T07:04:39.547Z,98238.16
2023-05-21T07:05:42.368Z,98246.19
2023-05-21T07:06:45.207Z,98246.34
2023-05-21T07:07:48.131Z,98239.09
2023-05-21T07:08:51.075Z,98243.66
2023-05-21T07:09:54.013Z,98234.84
2023-05-21T07:10:56.832Z,98233.41
2023-05-21T07:11:59.823Z,98235.72
2023-05-21T07:13:02.663Z,98239.44
2023-05-21T07:14:05.478Z,98240.25
2023-05-21T07:15:09.484Z,98235.41
2023-05-21T07:16:12.512Z,98243.94
2023-05-21T07:17:15.538Z,98233.59
2023-05-21T07:18:19.474Z,98238.94
2023-05-21T07:19:22.548Z,98235.63
2023-05-21T07:20:25.815Z,98233.69
2023-05-21T07:21:28.681Z,98242.06
2023-05-21T07:22:31.487Z,98238.25
2023-05-21T07:23:34.433Z,98237.25
2023-05-21T07:24:37.642Z,98241.44
2023-05-21T07:25:40.582Z,98232.56
2023-05-21T07:26:43.454Z,98231.44
2023-05-21T07:27:46.406Z,98232.44
2023-05-21T07:28:49.352Z,98239.09
2023-05-21T07:29:52.370Z,98238.75
2023-05-21T07:30:55.334Z,98240.81
2023-05-21T07:31:58.347Z,98232.03
2023-05-21T07:33:01.525Z,98235.53
2023-05-21T07:34:04.445Z,98232.09
2023-05-21T07:35:07.527Z,98241.19
2023-05-21T07:36:10.304Z,98238.19
2023-05-21T07:37:14.183Z,98243.53
2023-05-21T07:38:17.852Z,98240.53
2023-05-21T07:39:21.050Z,98235.19
2023-05-21T07:40:23.892Z,98231.81
2023-05-21T07:41:26.839Z,98232.16
2023-05-21T07:42:29.731Z,98241.84
2023-05-21T07:43:32.634Z,98233.84
2023-05-21T07:44:35.678Z,98232.37
2023-05-21T07:45:38.772Z,98231.97
2023-05-21T07:46:41.888Z,98234.66
2023-05-21T07:47:46.981Z,98230.78
2023-05-21T07:48:50.354Z,98239.59
2023-05-21T07:49:53.212Z,98228.53
2023-05-21T07:50:56.812Z,98223.19
2023-05-21T07:51:59.667Z,98228.91
2023-05-21T07:53:02.524Z,98227.00
2023-05-21T07:54:05.427Z,98228.16
2023-05-21T07:55:09.732Z,98225.91
2023-05-21T07:56:12.638Z,98230.84
2023-05-21T07:57:15.368Z,98233.94
2023-05-21T07:58:20.409Z,98231.66
2023-05-21T07:59:23.231Z,98228.59
2023-05-21T08:00:26.181Z,98228.19
2023-05-21T08:01:31.807Z,98222.44
2023-05-21T08:02:34.775Z,98218.63
2023-05-21T08:03:37.849Z,98224.72
2023-05-21T08:04:41.461Z,98233.53
2023-05-21T08:05:49.065Z,98230.44
2023-05-21T08:06:52.175Z,98234.28
2023-05-21T08:07:55.014Z,98238.06
2023-05-21T08:08:57.882Z,98236.53
2023-05-21T08:10:02.262Z,98233.84
2023-05-21T08:11:05.990Z,98231.59
2023-05-21T08:12:08.819Z,98228.84
2023-05-21T08:13:16.133Z,98243.47
2023-05-21T08:14:19.070Z,98233.88
2023-05-21T08:15:21.952Z,98236.50
2023-05-21T08:16:24.966Z,98239.84
2023-05-21T08:17:28.922Z,98228.34
2023-05-21T08:18:32.224Z,98234.81
2023-05-21T08:19:35.144Z,98231.59
2023-05-21T08:20:38.210Z,98227.81
2023-05-21T08:21:41.126Z,98235.44
2023-05-21T08:22:44.517Z,98235.03
2023-05-21T08:23:47.500Z,98227.75
2023-05-21T08:24:50.331Z,98236.03
2023-05-21T08:25:53.815Z,98236.31
2023-05-21T08:26:56.777Z,98238.81
2023-05-21T08:27:59.782Z,98234.53
2023-05-21T08:29:03.062Z,98240.09
2023-05-21T08:30:07.104Z,98237.41
2023-05-21T08:31:10.117Z,98232.78
2023-05-21T08:32:13.131Z,98241.28
2023-05-21T08:33:16.125Z,98239.59
2023-05-21T08:34:19.081Z,98235.56
2023-05-21T08:35:22.062Z,98240.09
2023-05-21T08:36:25.369Z,98235.56
2023-05-21T08:37:28.298Z,98234.00
2023-05-21T08:38:31.589Z,98238.25
2023-05-21T08:39:34.601Z,98241.31
2023-05-21T08:40:37.691Z,98235.59
2023-05-21T08:41:46.716Z,98240.59
2023-05-21T08:42:50.221Z,98234.34
2023-05-21T08:43:59.774Z,98228.50
2023-05-21T08:45:06.309Z,98238.41
2023-05-21T08:46:10.212Z,98243.09
2023-05-21T08:47:16.910Z,98237.84
2023-05-21T08:48:22.599Z,98242.28
2023-05-21T08:49:31.410Z,98233.28
2023-05-21T08:50:34.295Z,98239.47
2023-05-21T08:51:38.914Z,98231.78
2023-05-21T08:52:42.283Z,98231.66
2023-05-21T08:53:46.004Z,98239.78
2023-05-21T08:54:52.790Z,98235.88
2023-05-21T08:55:56.601Z,98240.94
2023-05-21T08:57:01.020Z,98230.53
2023-05-21T08:58:04.894Z,98226.66
2023-05-21T08:59:07.992Z,98228.94
2023-05-21T09:00:12.099Z,98235.94
2023-05-21T09:01:15.307Z,98235.22
2023-05-21T09:02:20.325Z,98241.06
2023-05-21T09:03:24.521Z,98234.38
2023-05-21T09:04:29.012Z,98234.50
2023-05-21T09:05:32.114Z,98231.59
2023-05-21T09:06:35.157Z,98235.31
2023-05-21T09:07:52.488Z,98235.81
2023-05-21T09:09:07.097Z,98225.22
2023-05-21T09:10:13.510Z,98219.34
2023-05-21T09:11:16.767Z,98229.53
2023-05-21T09:12:19.944Z,98226.56
2023-05-21T09:13:25.717Z,98228.13
2023-05-21T09:14:29.254Z,98231.03
2023-05-21T09:15:32.863Z,98237.25
2023-05-21T09:16:35.994Z,98229.97
2023-05-21T09:17:39.007Z,98225.28
2023-05-21T09:18:41.959Z,98226.63
2023-05-21T09:20:15.357Z,98218.66
2023-05-21T09:21:26.876Z,98222.97
2023-05-21T09:22:29.912Z,98225.37
2023-05-21T09:23:33.261Z,98216.97
2023-05-21T09:24:36.648Z,98227.75
2023-05-21T09:25:40.022Z,98221.34
2023-05-21T09:26:44.079Z,98233.09
2023-05-21T09:27:47.021Z,98226.88
2023-05-21T09:28:50.896Z,98230.41
2023-05-21T09:29:53.773Z,98225.34
2023-05-21T09:30:56.858Z,98226.22
2023-05-21T09:32:06.125Z,98234.59
2023-05-21T09:33:08.886Z,98231.22
2023-05-21T09:34:12.068Z,98232.37
2023-05-21T09:35:15.962Z,98226.25
2023-05-21T09:36:20.667Z,98226.91
2023-05-21T09:37:27.511Z,98227.53
2023-05-21T09:38:34.844Z,98218.13
2023-05-21T09:39:41.473Z,98227.13
2023-05-21T09:40:48.357Z,98230.22
2023-05-21T09:41:51.274Z,98225.00
2023-05-21T09:42:55.397Z,98228.50
2023-05-21T09:44:05.004Z,98237.97
2023-05-21T09:45:11.457Z,98227.81
2023-05-21T09:46:14.553Z,98221.62
2023-05-21T09:47:20.819Z,98224.09
2023-05-21T09:48:42.210Z,98227.13
2023-05-21T09:49:45.176Z,98232.97
2023-05-21T09:50:48.006Z,98234.91
2023-05-21T09:51:50.901Z,98227.91
2023-05-21T09:52:55.672Z,98228.88
2023-05-21T09:53:58.761Z,98233.91
2023-05-21T09:55:02.144Z,98234.09
2023-05-21T09:56:05.601Z,98231.47
2023-05-21T09:57:08.633Z,98233.72
2023-05-21T09:58:11.596Z,98226.94
2023-05-21T09:59:14.613Z,98228.66
2023-05-21T10:00:20.354Z,98227.91
2023-05-21T10:01:24.884Z,98228.22
2023-05-21T10:02:30.266Z,98229.22
2023-05-21T10:03:39.399Z,98218.81
2023-05-21T10:04:43.493Z,98228.56
2023-05-21T10:05:46.499Z,98227.69
2023-05-21T10:06:51.434Z,98224.19
2023-05-21T10:08:02.156Z,98213.62
2023-05-21T10:09:10.820Z,98225.91
2023-05-21T10:10:17.968Z,98215.91
2023-05-21T10:11:24.203Z,98225.59
2023-05-21T10:12:30.842Z,98220.78
2023-05-21T10:13:39.949Z,98208.28
2023-05-21T10:14:47.010Z,98204.94
2023-05-21T10:15:56.054Z,98213.88
2023-05-21T10:17:01.141Z,98218.31
2023-05-21T10:18:05.087Z,98215.88
2023-05-21T10:19:11.267Z,98209.72
2023-05-21T10:20:14.863Z,98221.41
2023-05-21T10:21:18.414Z,98202.09
2023-05-21T10:22:21.537Z,98213.91
2023-05-21T10:23:26.032Z,98215.03
2023-05-21T10:24:29.721Z,98215.16
2023-05-21T10:25:32.824Z,98213.81
2023-05-21T10:26:36.627Z,98202.63
2023-05-21T10:27:39.828Z,98203.06
2023-05-21T10:28:43.591Z,98208.63
2023-05-21T10:29:48.170Z,98214.97
2023-05-21T10:30:52.654Z,98202.72
2023-05-21T10:31:56.154Z,98209.59
2023-05-21T10:33:00.277Z,98210.69
2023-05-21T10:34:06.767Z,98208.00
2023-05-21T10:35:10.342Z,98204.00
2023-05-21T10:36:19.015Z,98206.66
2023-05-21T10:37:28.510Z,98208.25
2023-05-21T10:38:34.101Z,98207.47
2023-05-21T10:39:39.514Z,98216.34
2023-05-21T10:40:42.453Z,98202.41
2023-05-21T10:42:06.116Z,98210.81
2023-05-21T10:43:34.879Z,98206.69
2023-05-21T10:44:49.740Z,98205.47
2023-05-21T10:45:52.499Z,98208.59
2023-05-21T10:47:01.258Z,98208.38
2023-05-21T10:48:19.535Z,98205.03
2023-05-21T10:49:50.418Z,98201.75
2023-05-21T10:51:16.286Z,98197.50
2023-05-21T10:52:24.958Z,98206.78
2023-05-21T10:54:09.381Z,98200.47
2023-05-21T10:55:15.289Z,98194.66
2023-05-21T10:56:42.821Z,98198.97
2023-05-21T10:58:14.139Z,98197.19
2023-05-21T10:59:36.858Z,98192.09
2023-05-21T11:00:41.383Z,98199.97
2023-05-21T11:01:45.617Z,98193.31
2023-05-21T11:02:52.074Z,98188.41
2023-05-21T11:03:56.284Z,98189.06
2023-05-21T11:05:02.070Z,98189.41
2023-05-21T11:06:08.743Z,98192.53
2023-05-21T11:07:13.250Z,98194.19
2023-05-21T11:08:27.323Z,98193.41
2023-05-21T11:09:30.405Z,98194.81
2023-05-21T11:10:41.197Z,98192.44
2023-05-21T11:11:48.806Z,98191.72
2023-05-21T11:13:13.277Z,98194.16
2023-05-21T11:14:38.420Z,98196.63
2023-05-21T11:16:17.332Z,98192.75
2023-05-21T11:17:42.230Z,98195.69
2023-05-21T11:18:45.113Z,98179.87
2023-05-21T11:19:48.281Z,98194.66
2023-05-21T11:20:51.814Z,98196.44
2023-05-21T11:21:55.896Z,98194.94
2023-05-21T11:22:58.830Z,98196.50
2023-05-21T11:24:06.678Z,98185.88
2023-05-21T11:25:10.528Z,98194.87
2023-05-21T11:26:16.601Z,98188.03
2023-05-21T11:27:40.128Z,98190.25
2023-05-21T11:28:43.212Z,98185.59
2023-05-21T11:29:46.231Z,98184.22
2023-05-21T11:31:27.231Z,98190.66
2023-05-21T11:32:30.178Z,98180.75
2023-05-21T11:33:34.073Z,98179.00
2023-05-21T11:34:46.185Z,98181.47
2023-05-21T11:35:55.228Z,98173.94
2023-05-21T11:37:23.609Z,98183.59
2023-05-21T11:38:31.841Z,98179.72
2023-05-21T11:39:40.684Z,98178.78
2023-05-21T11:40:56.796Z,98176.16
2023-05-21T11:42:04.372Z,98197.38
2023-05-21T11:43:07.918Z,98181.19
2023-05-21T11:44:11.106Z,98183.69
2023-05-21T11:45:18.468Z,98195.63
2023-05-21T11:46:21.478Z,98182.81
2023-05-21T11:47:26.605Z,98184.72
2023-05-21T11:48:32.766Z,98183.66
2023-05-21T11:49:37.240Z,98183.41
2023-05-21T11:50:42.550Z,98177.19
2023-05-21T11:51:45.607Z,98173.03
2023-05-21T11:52:49.965Z,98180.84
2023-05-21T11:53:52.950Z,98180.25
2023-05-21T11:54:57.516Z,98183.59
2023-05-21T11:56:02.894Z,98179.78
2023-05-21T11:57:08.875Z,98179.22
2023-05-21T11:58:14.640Z,98176.78
2023-05-21T11:59:18.760Z,98180.69
2023-05-21T12:00:22.427Z,98182.50
2023-05-21T12:01:25.326Z,98166.06
2023-05-21T12:02:33.016Z,98165.28
2023-05-21T12:03:36.276Z,98175.16
2023-05-21T12:04:39.296Z,98158.69
2023-05-21T12:05:49.120Z,98160.50
2023-05-21T12:06:52.214Z,98165.19
2023-05-21T12:07:55.844Z,98165.78
2023-05-21T12:08:59.214Z,98167.56
2023-05-21T12:10:02.186Z,98158.38
2023-05-21T12:11:05.302Z,98165.41
2023-05-21T12:12:16.812Z,98156.41
2023-05-21T12:13:19.749Z,98160.50
2023-05-21T12:14:23.539Z,98159.59
2023-05-21T12:15:27.982Z,98153.19
2023-05-21T12:16:32.908Z,98156.87
2023-05-21T12:17:35.967Z,98154.47
2023-05-21T12:18:39.119Z,98146.81
2023-05-21T12:19:42.734Z,98147.13
2023-05-21T12:20:46.192Z,98157.72
2023-05-21T12:21:49.293Z,98147.25
2023-05-21T12:22:52.397Z,98152.44
2023-05-21T12:23:56.054Z,98148.91
2023-05-21T12:25:01.218Z,98146.69
2023-05-21T12:26:04.845Z,98143.16
2023-05-21T12:27:13.746Z,98151.78
2023-05-21T12:28:16.834Z,98155.69
2023-05-21T12:29:20.597Z,98145.88
2023-05-21T12:30:24.547Z,98141.97
2023-05-21T12:31:33.043Z,98147.06
2023-05-21T12:32:38.515Z,98146.66
2023-05-21T12:33:41.449Z,98148.37
2023-05-21T12:34:49.924Z,98144.56
2023-05-21T12:35:55.081Z,98139.16
2023-05-21T12:36:57.933Z,98142.91
2023-05-21T12:38:02.530Z,98144.06
2023-05-21T12:39:05.622Z,98145.94
2023-05-21T12:40:09.354Z,98139.59